AYNZ/LAE METAR and TAF weather

Enter ICAO airport designator
Station Type Date Time Source
AYNZ METAR 2023/01/29 09:00 UTC NOAA

AYNZ 290900Z 07010G15KT 9999 SCT050 29/21 Q1006=


Station Type Date Time Source
AYNZ Decoded METAR 2023/01/29 09:00 UTC NOAA

Station name not available
Jan 29, 2023 - 04:00 AM EST / 2023.01.29 0900 UTC
Wind: from the ENE (070 degrees) at 12 MPH (10 KT) gusting to 17 MPH (15 KT):0
Visibility: greater than 7 mile(s):0
Sky conditions: partly cloudy
Temperature: 84 F (29 C)
Dew Point: 69 F (21 C)
Relative Humidity: 62%
Pressure (altimeter): 29.71 in. Hg (1006 hPa)
ob: AYNZ 290900Z 07010G15KT 9999 SCT050 29/21 Q1006=
cycle: 9

Station Type Date Time Source
AYNZ TAF 2015/08/19 08:15 UTC NOAA

TAF AYNZ 190550Z 1908/1920 09015KT 9999 SCT020 SCT120
FM191400 VRB03KT 9999 BKN040 Q 1011 1014 1013 1010

Example: see airport list